createdAt,value
2018-12-18T00:02:30.394Z,25.37
2018-12-18T00:05:10.392Z,23.87
2018-12-18T00:07:51.811Z,26.25
2018-12-18T00:10:57.539Z,25.77
2018-12-18T00:13:46.887Z,28.75
2018-12-18T00:16:57.793Z,27.50
2018-12-18T00:23:47.270Z,28.10
2018-12-18T00:26:23.005Z,27.77
2018-12-18T00:28:56.204Z,26.70
2018-12-18T00:34:37.154Z,28.73
2018-12-18T00:37:28.609Z,29.15
2018-12-18T00:40:05.990Z,27.77
2018-12-18T00:42:36.400Z,27.67
2018-12-18T00:45:34.256Z,33.60
2018-12-18T00:48:25.419Z,32.38
2018-12-18T00:51:09.106Z,32.23
2018-12-18T00:53:44.618Z,39.10
2018-12-18T00:56:25.793Z,35.60
2018-12-18T00:58:59.525Z,37.60
2018-12-18T01:01:30.837Z,39.25
2018-12-18T01:04:03.185Z,40.25
2018-12-18T01:06:32.854Z,43.33
2018-12-18T01:09:01.130Z,37.80
2018-12-18T01:11:29.582Z,42.67
2018-12-18T01:13:57.874Z,40.33
2018-12-18T01:16:26.268Z,39.80
2018-12-18T01:18:54.662Z,41.30
2018-12-18T01:21:23.699Z,42.23
2018-12-18T01:23:56.470Z,40.12
2018-12-18T01:26:30.679Z,42.35
2018-12-18T01:29:02.610Z,41.23
2018-12-18T01:31:33.438Z,40.98
2018-12-18T01:34:04.874Z,44.33
2018-12-18T01:36:35.632Z,44.10
2018-12-18T01:39:07.560Z,42.45
2018-12-18T01:41:42.329Z,45.08
2018-12-18T01:44:15.566Z,39.95
2018-12-18T01:49:57.989Z,43.78
2018-12-18T01:58:56.532Z,40.28
2018-12-18T02:04:27.945Z,41.35
2018-12-18T02:07:03.055Z,39.92
2018-12-18T02:09:32.780Z,41.20
2018-12-18T02:12:07.262Z,41.85
2018-12-18T02:14:35.691Z,41.63
2018-12-18T02:17:04.215Z,40.35
2018-12-18T02:19:32.577Z,44.08
2018-12-18T02:22:02.123Z,41.98
2018-12-18T02:24:38.715Z,39.90
2018-12-18T02:27:37.005Z,41.55
2018-12-18T02:30:20.880Z,41.90
2018-12-18T02:32:57.259Z,40.85
2018-12-18T02:35:26.823Z,42.48
2018-12-18T02:37:55.423Z,44.58
2018-12-18T02:40:25.013Z,41.77
2018-12-18T02:42:53.374Z,40.63
2018-12-18T02:45:40.033Z,44.30
2018-12-18T02:57:27.185Z,40.48
2018-12-18T02:59:55.735Z,40.92
2018-12-18T03:02:24.081Z,40.33
2018-12-18T03:04:52.636Z,39.35
2018-12-18T03:07:24.481Z,40.30
2018-12-18T03:09:53.362Z,40.08
2018-12-18T03:12:32.681Z,36.75
2018-12-18T03:15:01.065Z,39.63
2018-12-18T03:17:29.339Z,37.15
2018-12-18T03:19:57.618Z,37.63
2018-12-18T03:22:26.243Z,39.25
2018-12-18T03:24:54.506Z,39.95
2018-12-18T03:27:23.097Z,38.95
2018-12-18T03:29:51.632Z,37.33
2018-12-18T03:32:37.515Z,39.38
2018-12-18T03:35:06.165Z,39.38
2018-12-18T03:37:34.509Z,36.90
2018-12-18T03:40:03.179Z,37.85
2018-12-18T03:42:31.512Z,39.60
2018-12-18T03:44:59.926Z,40.95
2018-12-18T03:47:28.250Z,39.30
2018-12-18T03:49:56.557Z,37.70
2018-12-18T03:52:24.877Z,43.30
2018-12-18T03:54:53.082Z,42.78
2018-12-18T03:57:21.434Z,36.55
2018-12-18T03:59:51.023Z,40.20
2018-12-18T04:02:19.293Z,40.63
2018-12-18T04:04:48.555Z,38.25
2018-12-18T04:07:16.965Z,41.60
2018-12-18T04:09:45.295Z,41.30
2018-12-18T04:12:31.019Z,40.38
2018-12-18T04:18:15.926Z,39.20
2018-12-18T04:21:06.445Z,38.80
2018-12-18T04:23:47.394Z,40.80
2018-12-18T04:26:16.180Z,38.63
2018-12-18T04:29:03.112Z,39.25
2018-12-18T04:34:31.257Z,38.65
2018-12-18T04:37:03.052Z,39.50
2018-12-18T04:42:37.563Z,36.40
2018-12-18T04:45:18.544Z,37.88
2018-12-18T04:48:05.680Z,39.40
2018-12-18T04:53:49.506Z,36.28
2018-12-18T04:59:27.396Z,34.10
2018-12-18T05:10:56.322Z,37.98
2018-12-18T05:16:54.456Z,35.40
2018-12-18T05:22:20.686Z,37.63
2018-12-18T05:24:52.091Z,36.42
2018-12-18T05:27:38.381Z,41.40
2018-12-18T05:39:19.887Z,35.20
2018-12-18T05:51:02.673Z,34.73
2018-12-18T05:53:39.826Z,32.38
2018-12-18T06:29:33.984Z,31.33
2018-12-18T06:32:08.430Z,33.50
2018-12-18T06:34:36.847Z,30.85
2018-12-18T06:37:10.916Z,31.07
2018-12-18T06:39:44.922Z,32.58
2018-12-18T06:42:26.126Z,31.12
2018-12-18T06:44:54.663Z,31.02
2018-12-18T06:47:23.858Z,32.10
2018-12-18T06:49:52.047Z,29.92
2018-12-18T06:52:20.240Z,32.05
2018-12-18T06:54:48.468Z,28.47
2018-12-18T06:57:16.743Z,31.80
2018-12-18T06:59:45.367Z,28.95
2018-12-18T07:02:13.592Z,29.55
2018-12-18T07:04:41.834Z,31.05
2018-12-18T07:07:10.030Z,29.48
2018-12-18T07:09:38.234Z,30.65
2018-12-18T07:12:06.610Z,32.15
2018-12-18T07:14:34.878Z,31.02
2018-12-18T07:17:03.150Z,30.97
2018-12-18T07:19:34.586Z,30.23
2018-12-18T07:22:03.005Z,29.70
2018-12-18T07:24:31.266Z,32.23
2018-12-18T07:26:59.490Z,31.00
2018-12-18T07:29:27.886Z,29.30
2018-12-18T07:31:56.133Z,33.28
2018-12-18T07:34:36.918Z,30.32
2018-12-18T07:37:15.413Z,29.05
2018-12-18T07:39:51.130Z,30.02
2018-12-18T07:42:31.465Z,31.90
2018-12-18T07:45:04.018Z,31.80
2018-12-18T07:47:38.132Z,31.62
2018-12-18T07:50:24.660Z,28.77
2018-12-18T07:52:59.040Z,28.60
2018-12-18T07:55:39.289Z,27.80
2018-12-18T07:58:18.324Z,29.80
2018-12-18T08:00:56.435Z,30.08
2018-12-18T08:03:36.734Z,29.65
2018-12-18T08:06:12.986Z,26.27
2018-12-18T08:08:55.306Z,32.00
2018-12-18T08:11:36.224Z,27.73
2018-12-18T08:14:12.652Z,29.63
2018-12-18T08:16:46.870Z,30.10
2018-12-18T08:19:22.604Z,26.27
2018-12-18T08:21:56.716Z,25.72
2018-12-18T08:24:37.327Z,25.30
2018-12-18T08:30:14.280Z,25.92
2018-12-18T08:32:50.369Z,27.17
2018-12-18T08:35:29.009Z,24.65
2018-12-18T08:38:05.313Z,25.60
2018-12-18T08:40:42.041Z,24.23
2018-12-18T08:43:18.733Z,26.00
2018-12-18T08:45:53.615Z,24.23
2018-12-18T08:48:31.486Z,24.67
2018-12-18T08:51:05.696Z,23.42
2018-12-18T08:53:43.537Z,22.50
2018-12-18T08:56:18.015Z,21.85
2018-12-18T08:58:54.642Z,22.60
2018-12-18T09:01:26.377Z,24.40
2018-12-18T09:04:00.890Z,22.15
2018-12-18T09:06:39.085Z,21.25
2018-12-18T09:09:12.898Z,21.27
2018-12-18T09:11:51.215Z,21.68
2018-12-18T09:14:27.269Z,20.77
2018-12-18T09:20:01.524Z,22.02
2018-12-18T09:22:35.948Z,24.30
2018-12-18T09:25:09.798Z,24.57
2018-12-18T09:27:43.960Z,23.77
2018-12-18T09:30:21.982Z,21.97
2018-12-18T09:32:57.273Z,24.27
2018-12-18T09:35:35.206Z,23.40
2018-12-18T09:38:14.788Z,22.37
2018-12-18T09:40:56.631Z,22.37
2018-12-18T09:43:36.714Z,23.45
2018-12-18T09:46:13.099Z,26.10
2018-12-18T09:48:44.590Z,22.10
2018-12-18T09:51:21.295Z,24.05
2018-12-18T09:53:56.930Z,24.07
2018-12-18T09:56:35.698Z,27.35
2018-12-18T09:59:12.430Z,24.40
2018-12-18T10:01:52.755Z,25.75
2018-12-18T10:04:27.487Z,24.55
2018-12-18T10:07:03.563Z,23.62
2018-12-18T10:09:35.424Z,21.50
2018-12-18T10:12:20.423Z,23.65
2018-12-18T10:14:57.648Z,23.92
2018-12-18T10:17:38.653Z,22.50
2018-12-18T10:20:12.999Z,22.42
2018-12-18T10:22:49.183Z,24.43
2018-12-18T10:25:22.954Z,27.67
2018-12-18T10:28:01.197Z,24.23
2018-12-18T10:30:39.397Z,23.83
2018-12-18T10:33:21.663Z,27.13
2018-12-18T10:35:54.859Z,25.40
2018-12-18T10:38:33.168Z,26.50
2018-12-18T10:41:07.133Z,26.42
2018-12-18T10:43:42.934Z,26.90
2018-12-18T10:46:20.916Z,27.27
2018-12-18T10:48:56.195Z,26.30
2018-12-18T10:51:30.043Z,26.33
2018-12-18T10:54:04.476Z,28.23
2018-12-18T10:56:38.851Z,28.92
2018-12-18T10:59:11.151Z,30.80
2018-12-18T11:01:51.456Z,28.62
2018-12-18T11:04:29.412Z,27.67
2018-12-18T11:07:06.086Z,30.37
2018-12-18T11:09:40.018Z,30.10
2018-12-18T11:12:15.226Z,26.87
2018-12-18T11:17:42.143Z,31.30
2018-12-18T11:20:16.955Z,29.40
2018-12-18T11:22:50.932Z,29.10
2018-12-18T11:25:26.835Z,30.17
2018-12-18T11:28:02.305Z,30.68
2018-12-18T11:30:44.178Z,30.75
2018-12-18T11:33:18.840Z,27.85
2018-12-18T11:35:54.298Z,27.45
2018-12-18T11:38:28.903Z,28.10
2018-12-18T11:41:00.477Z,29.12
2018-12-18T11:43:35.007Z,27.77
2018-12-18T11:46:15.615Z,30.25
2018-12-18T11:48:50.025Z,29.63
2018-12-18T11:51:23.870Z,28.32
2018-12-18T11:54:00.188Z,27.73
2018-12-18T11:56:35.123Z,30.02
2018-12-18T11:59:09.023Z,32.00
2018-12-18T12:01:43.149Z,30.75
2018-12-18T12:04:17.140Z,31.60
2018-12-18T12:06:48.560Z,31.52
2018-12-18T12:09:24.981Z,30.48
2018-12-18T12:11:59.279Z,30.92
2018-12-18T12:14:37.639Z,31.12
2018-12-18T12:17:10.030Z,30.30
2018-12-18T12:19:39.839Z,31.40
2018-12-18T12:22:16.481Z,30.55
2018-12-18T12:24:51.261Z,31.23
2018-12-18T12:27:38.351Z,27.82
2018-12-18T12:30:12.522Z,28.10
2018-12-18T12:32:46.320Z,27.55
2018-12-18T12:35:20.595Z,27.42
2018-12-18T12:37:54.938Z,29.42
2018-12-18T12:40:32.708Z,29.87
2018-12-18T12:43:06.910Z,25.88
2018-12-18T12:45:38.867Z,27.30
2018-12-18T12:48:18.463Z,26.20
2018-12-18T12:50:57.558Z,28.10
2018-12-18T12:53:36.296Z,28.60
2018-12-18T12:56:11.351Z,26.10
2018-12-18T12:58:50.056Z,23.98
2018-12-18T13:01:24.511Z,25.25
2018-12-18T13:03:59.003Z,25.35
2018-12-18T13:06:45.327Z,24.45
2018-12-18T13:09:19.492Z,23.55
2018-12-18T13:11:53.340Z,24.30
2018-12-18T13:14:42.127Z,25.20
2018-12-18T13:17:20.421Z,23.50
2018-12-18T13:19:54.196Z,20.95
2018-12-18T13:22:25.917Z,20.60
2018-12-18T13:24:56.239Z,18.17
2018-12-18T13:36:12.663Z,19.87
2018-12-18T13:38:41.052Z,19.80
2018-12-18T13:41:09.266Z,19.55
2018-12-18T13:43:37.618Z,17.35
2018-12-18T13:46:05.914Z,18.70
2018-12-18T13:48:34.208Z,17.77
2018-12-18T13:51:02.506Z,18.10
2018-12-18T13:53:30.775Z,17.65
2018-12-18T13:55:59.055Z,18.12
2018-12-18T13:58:27.279Z,17.10
2018-12-18T14:00:55.631Z,18.60
2018-12-18T14:03:23.999Z,16.95
2018-12-18T14:05:52.268Z,18.35
2018-12-18T14:08:20.460Z,16.82
2018-12-18T14:10:48.967Z,19.10
2018-12-18T14:13:17.346Z,20.02
2018-12-18T14:15:46.596Z,19.80
2018-12-18T14:18:15.220Z,23.10
2018-12-18T14:20:43.962Z,22.93
2018-12-18T14:23:13.165Z,23.05
2018-12-18T14:25:43.609Z,23.25
2018-12-18T14:31:22.183Z,20.10
2018-12-18T14:34:03.278Z,20.68
2018-12-18T14:39:38.482Z,18.27
2018-12-18T14:42:13.902Z,18.85
2018-12-18T14:44:53.217Z,20.32
2018-12-18T14:47:32.383Z,17.20
2018-12-18T14:50:07.322Z,17.10
2018-12-18T14:52:44.842Z,17.07
2018-12-18T14:58:19.687Z,16.25
2018-12-18T15:00:54.436Z,17.77
2018-12-18T15:03:33.752Z,18.77
2018-12-18T15:06:10.631Z,16.05
2018-12-18T15:08:48.728Z,15.70
2018-12-18T15:11:29.408Z,15.30
2018-12-18T15:17:13.269Z,12.68
2018-12-18T15:20:03.245Z,15.05
2018-12-18T15:22:49.642Z,12.73
2018-12-18T15:25:39.900Z,12.90
2018-12-18T15:28:23.008Z,13.28
2018-12-18T15:34:18.284Z,12.70
2018-12-18T15:37:01.416Z,11.95
2018-12-18T15:39:43.160Z,11.83
2018-12-18T15:42:18.222Z,13.10
2018-12-18T15:45:02.985Z,12.98
2018-12-18T15:47:39.263Z,13.55
2018-12-18T15:50:18.211Z,13.90
2018-12-18T15:52:59.326Z,12.55
2018-12-18T16:01:46.156Z,10.82
2018-12-18T16:04:35.708Z,10.13
2018-12-18T16:54:41.387Z,9.73
2018-12-18T16:57:25.255Z,11.35
2018-12-18T17:02:55.115Z,10.65
2018-12-18T17:05:47.974Z,11.12
2018-12-18T17:08:25.356Z,9.25
2018-12-18T17:11:07.255Z,9.68
2018-12-18T17:13:44.592Z,10.82
2018-12-18T17:16:24.662Z,10.43
2018-12-18T17:18:59.366Z,11.25
2018-12-18T17:21:38.608Z,10.65
2018-12-18T17:24:26.902Z,9.93
2018-12-18T17:27:14.741Z,10.95
2018-12-18T17:33:01.434Z,10.32
2018-12-18T17:35:45.061Z,9.65
2018-12-18T17:44:07.038Z,9.93
2018-12-18T17:46:53.596Z,10.63
2018-12-18T17:49:35.384Z,9.85
2018-12-18T17:52:31.623Z,10.23
2018-12-18T17:55:15.026Z,10.48
2018-12-18T17:58:01.598Z,10.03
2018-12-18T18:00:41.077Z,10.78
2018-12-18T18:03:09.431Z,9.95
2018-12-18T18:05:37.788Z,10.68
2018-12-18T18:08:06.445Z,9.83
2018-12-18T18:10:34.925Z,9.73
2018-12-18T18:13:04.522Z,10.55
2018-12-18T18:15:33.774Z,10.15
2018-12-18T18:18:02.265Z,10.35
2018-12-18T18:20:31.049Z,9.70
2018-12-18T18:23:00.890Z,10.50
2018-12-18T18:25:29.196Z,10.05
2018-12-18T18:27:57.635Z,9.95
2018-12-18T18:30:26.299Z,9.60
2018-12-18T18:32:54.881Z,9.80
2018-12-18T18:35:23.171Z,9.93
2018-12-18T18:37:51.527Z,9.85
2018-12-18T18:40:19.885Z,9.70
2018-12-18T18:42:49.527Z,10.25
2018-12-18T18:45:17.840Z,11.35
2018-12-18T18:47:46.226Z,10.18
2018-12-18T18:50:29.155Z,11.10
2018-12-18T18:52:58.118Z,9.65
2018-12-18T18:55:26.753Z,10.50
2018-12-18T18:57:55.311Z,10.40
2018-12-18T19:00:24.694Z,11.30
2018-12-18T19:02:57.736Z,11.20
2018-12-18T19:05:26.252Z,8.85
2018-12-18T19:07:56.628Z,11.12
2018-12-18T19:10:25.232Z,9.10
2018-12-18T19:12:58.073Z,11.48
2018-12-18T19:15:26.539Z,10.53
2018-12-18T19:17:55.091Z,9.35
2018-12-18T19:20:29.510Z,9.75
2018-12-18T19:22:58.627Z,10.30
2018-12-18T19:28:26.569Z,10.98
2018-12-18T19:31:01.229Z,9.95
2018-12-18T19:33:36.853Z,8.90
2018-12-18T19:39:08.281Z,9.85
2018-12-18T19:41:40.613Z,10.80
2018-12-18T19:47:07.100Z,11.75
2018-12-18T19:49:35.577Z,11.57
2018-12-18T19:52:04.144Z,11.12
2018-12-18T19:54:32.853Z,11.30
2018-12-18T19:57:01.847Z,11.57
2018-12-18T19:59:49.041Z,11.75
2018-12-18T20:02:17.468Z,10.78
2018-12-18T20:05:04.322Z,11.40
2018-12-18T20:07:51.709Z,11.38
2018-12-18T20:10:23.134Z,12.10
2018-12-18T20:12:51.549Z,11.70
2018-12-18T20:15:19.975Z,12.55
2018-12-18T20:17:48.584Z,12.55
2018-12-18T20:20:17.325Z,14.00
2018-12-18T20:22:51.714Z,13.15
2018-12-18T20:25:20.077Z,12.80
2018-12-18T20:27:48.312Z,12.78
2018-12-18T20:30:28.775Z,14.47
2018-12-18T20:33:03.566Z,12.78
2018-12-18T20:38:43.261Z,12.28
2018-12-18T20:41:17.726Z,12.50
2018-12-18T20:46:48.551Z,12.82
2018-12-18T20:49:24.606Z,15.20
2018-12-18T20:52:02.630Z,12.98
2018-12-18T20:54:37.273Z,13.83
2018-12-18T20:57:13.375Z,14.68
2018-12-18T20:59:48.400Z,18.20
2018-12-18T21:02:21.214Z,15.48
2018-12-18T21:04:56.317Z,17.95
2018-12-18T21:10:23.830Z,16.00
2018-12-18T21:13:03.725Z,16.07
2018-12-18T21:15:39.943Z,17.25
2018-12-18T21:18:15.475Z,17.60
2018-12-18T21:20:48.906Z,16.15
2018-12-18T21:23:26.506Z,15.85
2018-12-18T21:26:14.386Z,15.78
2018-12-18T21:28:57.528Z,16.05
2018-12-18T21:31:32.293Z,16.77
2018-12-18T21:34:08.440Z,16.50
2018-12-18T21:36:47.406Z,15.10
2018-12-18T21:45:11.040Z,14.35
2018-12-18T21:47:47.481Z,13.70
2018-12-18T21:50:34.385Z,13.13
2018-12-18T21:53:16.752Z,13.22
2018-12-18T21:55:45.268Z,12.85
2018-12-18T21:58:14.737Z,12.35
2018-12-18T22:00:43.419Z,12.70
2018-12-18T22:03:11.831Z,13.50
2018-12-18T22:05:40.211Z,11.88
2018-12-18T22:08:08.602Z,12.03
2018-12-18T22:10:36.981Z,14.13
2018-12-18T22:13:05.474Z,12.47
2018-12-18T22:15:34.179Z,11.97
2018-12-18T22:18:02.600Z,11.95
2018-12-18T22:20:31.386Z,14.25
2018-12-18T22:22:59.745Z,11.60
2018-12-18T22:25:28.123Z,10.48
2018-12-18T22:27:56.912Z,12.10
2018-12-18T22:30:32.020Z,12.07
2018-12-18T22:33:00.444Z,12.63
2018-12-18T22:35:40.796Z,10.08
2018-12-18T22:38:16.905Z,10.80
2018-12-18T22:40:50.866Z,11.08
2018-12-18T22:43:26.243Z,11.38
2018-12-18T22:46:08.833Z,11.97
2018-12-18T22:48:37.360Z,12.07
2018-12-18T22:51:18.992Z,10.13
2018-12-18T22:56:57.105Z,10.85
2018-12-18T22:59:31.215Z,11.90
2018-12-18T23:02:18.888Z,13.03
2018-12-18T23:04:47.755Z,10.98
2018-12-18T23:07:16.539Z,13.03
2018-12-18T23:18:38.683Z,12.82
2018-12-18T23:21:22.861Z,13.35
2018-12-18T23:23:56.680Z,14.45
2018-12-18T23:26:43.121Z,13.62
2018-12-18T23:29:17.263Z,14.13
2018-12-18T23:31:58.502Z,15.08
2018-12-18T23:34:33.214Z,16.40
2018-12-18T23:37:14.387Z,16.50
2018-12-18T23:39:53.002Z,17.40
2018-12-18T23:42:33.438Z,17.25
2018-12-18T23:45:14.800Z,17.10
2018-12-18T23:47:55.619Z,16.40
2018-12-18T23:50:36.089Z,18.52
2018-12-18T23:53:04.441Z,17.67
2018-12-18T23:55:32.754Z,19.60
2018-12-18T23:58:00.933Z,19.40
